Terminal Aerodrome Forecast
Issued by NWS Sioux Falls, SD

Home | Current Version | Previous Version | Text Only | Print | Product List | Glossary On
Versions: 1 2 3 4 5 6 7 8 9 10 11 12 13 14 15
000
FTUS43 KFSD 130500
TAFHON
TAF
KHON 130539Z 1306/1406 36018G27KT P6SM OVC120
     FM130800 36015G22KT P6SM SCT030 OVC090
     FM131100 35021G32KT P6SM BKN025 OVC080
     FM131500 35019G29KT P6SM SCT030 OVC100
     FM131900 36024G34KT P6SM SCT100 OVC200
     FM140100 36017G26KT P6SM BKN200=

USA.gov is the U.S. government's official web portal to all federal, state and local government web resources and services.